sensor_id;sensor_type;location;lat;lon;timestamp;pressure;altitude;pressure_sealevel;temperature;humidity
62697;BME280;48761;42.680;23.312;2022-12-18T00:03:52;95598.59;;;6.93;84.11
62697;BME280;48761;42.680;23.312;2022-12-18T00:06:19;95603.56;;;7.01;84.95
62697;BME280;48761;42.680;23.312;2022-12-18T00:08:45;95601.84;;;6.79;84.43
62697;BME280;48761;42.680;23.312;2022-12-18T00:11:17;95598.75;;;6.69;85.34
62697;BME280;48761;42.680;23.312;2022-12-18T00:13:44;95600.53;;;6.69;84.86
62697;BME280;48761;42.680;23.312;2022-12-18T00:16:13;95610.97;;;6.72;84.31
62697;BME280;48761;42.680;23.312;2022-12-18T00:18:39;95610.69;;;6.78;84.70
62697;BME280;48761;42.680;23.312;2022-12-18T00:21:07;95596.03;;;6.71;84.44
62697;BME280;48761;42.680;23.312;2022-12-18T00:23:35;95612.44;;;6.79;83.90
62697;BME280;48761;42.680;23.312;2022-12-18T00:26:03;95620.28;;;6.81;84.31
62697;BME280;48761;42.680;23.312;2022-12-18T00:28:29;95613.28;;;6.80;83.87
62697;BME280;48761;42.680;23.312;2022-12-18T00:31:03;95628.81;;;6.67;83.75
62697;BME280;48761;42.680;23.312;2022-12-18T00:33:29;95618.75;;;6.54;84.06
62697;BME280;48761;42.680;23.312;2022-12-18T00:36:07;95609.38;;;6.68;83.89
62697;BME280;48761;42.680;23.312;2022-12-18T00:38:34;95635.13;;;6.63;83.81
62697;BME280;48761;42.680;23.312;2022-12-18T00:40:59;95635.28;;;6.59;83.56
62697;BME280;48761;42.680;23.312;2022-12-18T00:43:25;95636.41;;;6.75;83.78
62697;BME280;48761;42.680;23.312;2022-12-18T00:45:52;95639.38;;;6.67;82.68
62697;BME280;48761;42.680;23.312;2022-12-18T00:48:18;95643.53;;;6.29;83.56
62697;BME280;48761;42.680;23.312;2022-12-18T00:50:44;95635.47;;;6.32;83.68
62697;BME280;48761;42.680;23.312;2022-12-18T00:53:10;95639.03;;;6.54;83.07
62697;BME280;48761;42.680;23.312;2022-12-18T00:55:40;95612.53;;;6.34;83.31
62697;BME280;48761;42.680;23.312;2022-12-18T00:58:07;95644.38;;;6.73;82.98
62697;BME280;48761;42.680;23.312;2022-12-18T01:00:34;95650.84;;;6.66;82.98
62697;BME280;48761;42.680;23.312;2022-12-18T01:03:00;95657.09;;;6.65;82.44
62697;BME280;48761;42.680;23.312;2022-12-18T01:05:26;95625.41;;;6.20;83.25
62697;BME280;48761;42.680;23.312;2022-12-18T01:07:52;95627.88;;;6.47;82.54
62697;BME280;48761;42.680;23.312;2022-12-18T01:10:18;95659.09;;;6.58;82.17
62697;BME280;48761;42.680;23.312;2022-12-18T01:12:44;95664.41;;;6.35;82.41
62697;BME280;48761;42.680;23.312;2022-12-18T01:15:11;95671.91;;;6.24;82.29
62697;BME280;48761;42.680;23.312;2022-12-18T01:17:38;95674.25;;;6.09;82.73
62697;BME280;48761;42.680;23.312;2022-12-18T01:20:05;95673.53;;;6.04;82.50
62697;BME280;48761;42.680;23.312;2022-12-18T01:22:34;95675.28;;;5.81;83.29
62697;BME280;48761;42.680;23.312;2022-12-18T01:25:01;95659.66;;;5.51;83.56
62697;BME280;48761;42.680;23.312;2022-12-18T01:27:27;95675.31;;;5.79;83.43
62697;BME280;48761;42.680;23.312;2022-12-18T01:29:53;95682.16;;;5.61;84.17
62697;BME280;48761;42.680;23.312;2022-12-18T01:32:19;95681.56;;;5.77;83.80
62697;BME280;48761;42.680;23.312;2022-12-18T01:34:46;95685.13;;;5.76;83.37
62697;BME280;48761;42.680;23.312;2022-12-18T01:37:12;95681.56;;;5.77;83.23
62697;BME280;48761;42.680;23.312;2022-12-18T01:39:38;95695.22;;;5.88;82.84
62697;BME280;48761;42.680;23.312;2022-12-18T01:42:10;95698.97;;;6.05;82.80
62697;BME280;48761;42.680;23.312;2022-12-18T01:52:59;95691.09;;;5.81;82.57
62697;BME280;48761;42.680;23.312;2022-12-18T01:55:29;95697.19;;;5.83;82.75
62697;BME280;48761;42.680;23.312;2022-12-18T01:57:57;95694.97;;;5.94;82.13
62697;BME280;48761;42.680;23.312;2022-12-18T02:00:25;95685.25;;;5.72;82.57
62697;BME280;48761;42.680;23.312;2022-12-18T02:02:51;95694.28;;;5.89;82.68
62697;BME280;48761;42.680;23.312;2022-12-18T02:05:47;95688.56;;;5.78;82.61
62697;BME280;48761;42.680;23.312;2022-12-18T02:11:09;95702.44;;;5.59;82.72
62697;BME280;48761;42.680;23.312;2022-12-18T02:13:46;95699.88;;;5.32;83.85
62697;BME280;48761;42.680;23.312;2022-12-18T02:18:57;95716.19;;;5.43;83.81
62697;BME280;48761;42.680;23.312;2022-12-18T02:26:56;95717.47;;;5.57;83.09
62697;BME280;48761;42.680;23.312;2022-12-18T02:29:24;95726.31;;;5.56;82.83
62697;BME280;48761;42.680;23.312;2022-12-18T02:31:53;95704.16;;;5.36;83.02
62697;BME280;48761;42.680;23.312;2022-12-18T02:34:23;95702.19;;;5.41;83.24
62697;BME280;48761;42.680;23.312;2022-12-18T02:36:51;95720.66;;;5.41;83.16
62697;BME280;48761;42.680;23.312;2022-12-18T02:39:20;95717.56;;;5.54;82.88
62697;BME280;48761;42.680;23.312;2022-12-18T02:41:47;95668.59;;;5.22;82.69
62697;BME280;48761;42.680;23.312;2022-12-18T02:44:14;95715.75;;;5.56;82.64
62697;BME280;48761;42.680;23.312;2022-12-18T02:46:46;95715.66;;;5.33;82.92
62697;BME280;48761;42.680;23.312;2022-12-18T02:52:34;95731.16;;;5.43;83.10
62697;BME280;48761;42.680;23.312;2022-12-18T02:57:58;95731.16;;;5.17;83.57
62697;BME280;48761;42.680;23.312;2022-12-18T03:03:25;95725.88;;;5.17;83.76
62697;BME280;48761;42.680;23.312;2022-12-18T03:05:53;95735.66;;;5.13;83.94
62697;BME280;48761;42.680;23.312;2022-12-18T03:08:25;95734.28;;;5.03;83.66
62697;BME280;48761;42.680;23.312;2022-12-18T03:11:03;95741.78;;;5.14;83.94
62697;BME280;48761;42.680;23.312;2022-12-18T03:13:45;95742.50;;;5.45;83.29
62697;BME280;48761;42.680;23.312;2022-12-18T03:16:19;95737.56;;;5.35;82.81
62697;BME280;48761;42.680;23.312;2022-12-18T03:19:00;95748.97;;;5.10;83.39
62697;BME280;48761;42.680;23.312;2022-12-18T03:21:45;95749.16;;;4.77;84.48
62697;BME280;48761;42.680;23.312;2022-12-18T03:24:14;95746.13;;;4.89;84.07
62697;BME280;48761;42.680;23.312;2022-12-18T03:26:44;95754.03;;;4.89;84.10
62697;BME280;48761;42.680;23.312;2022-12-18T03:29:24;95738.59;;;5.06;83.44
62697;BME280;48761;42.680;23.312;2022-12-18T03:31:55;95751.75;;;5.06;83.16
62697;BME280;48761;42.680;23.312;2022-12-18T03:34:29;95760.50;;;5.06;83.42
62697;BME280;48761;42.680;23.312;2022-12-18T03:36:56;95775.56;;;5.02;83.35
62697;BME280;48761;42.680;23.312;2022-12-18T03:39:22;95767.16;;;4.91;83.53
62697;BME280;48761;42.680;23.312;2022-12-18T03:41:53;95775.25;;;5.12;82.99
62697;BME280;48761;42.680;23.312;2022-12-18T03:44:37;95776.31;;;5.06;81.97
62697;BME280;48761;42.680;23.312;2022-12-18T03:47:29;95777.91;;;4.85;82.28
62697;BME280;48761;42.680;23.312;2022-12-18T03:52:57;95791.88;;;5.14;81.99
62697;BME280;48761;42.680;23.312;2022-12-18T03:55:25;95798.97;;;5.12;82.41
62697;BME280;48761;42.680;23.312;2022-12-18T03:57:53;95790.53;;;5.02;81.77
62697;BME280;48761;42.680;23.312;2022-12-18T04:00:20;95808.81;;;5.07;81.50
62697;BME280;48761;42.680;23.312;2022-12-18T04:02:52;95807.19;;;5.02;82.64
62697;BME280;48761;42.680;23.312;2022-12-18T04:05:19;95816.09;;;4.98;82.20
62697;BME280;48761;42.680;23.312;2022-12-18T04:07:47;95817.84;;;4.99;81.66
62697;BME280;48761;42.680;23.312;2022-12-18T04:10:14;95814.56;;;4.91;81.49
62697;BME280;48761;42.680;23.312;2022-12-18T04:12:42;95813.94;;;5.11;81.99
62697;BME280;48761;42.680;23.312;2022-12-18T04:15:08;95818.84;;;5.22;81.63
62697;BME280;48761;42.680;23.312;2022-12-18T04:17:35;95818.63;;;5.29;80.69
62697;BME280;48761;42.680;23.312;2022-12-18T04:20:01;95830.72;;;5.36;80.28
62697;BME280;48761;42.680;23.312;2022-12-18T04:22:27;95834.38;;;5.32;79.75
62697;BME280;48761;42.680;23.312;2022-12-18T04:24:53;95818.81;;;5.49;79.00
62697;BME280;48761;42.680;23.312;2022-12-18T04:27:19;95843.78;;;5.39;79.08
62697;BME280;48761;42.680;23.312;2022-12-18T04:29:45;95825.97;;;5.20;79.30
62697;BME280;48761;42.680;23.312;2022-12-18T04:32:11;95843.78;;;5.12;79.70
62697;BME280;48761;42.680;23.312;2022-12-18T04:34:37;95849.16;;;5.09;79.33
62697;BME280;48761;42.680;23.312;2022-12-18T04:37:02;95847.16;;;5.17;79.23
62697;BME280;48761;42.680;23.312;2022-12-18T04:39:29;95858.19;;;5.01;79.15
62697;BME280;48761;42.680;23.312;2022-12-18T04:41:55;95861.34;;;5.13;79.06
62697;BME280;48761;42.680;23.312;2022-12-18T04:44:21;95864.88;;;5.12;78.96
62697;BME280;48761;42.680;23.312;2022-12-18T04:46:47;95861.22;;;5.16;78.05
62697;BME280;48761;42.680;23.312;2022-12-18T04:49:13;95865.84;;;4.80;78.54
62697;BME280;48761;42.680;23.312;2022-12-18T04:51:39;95875.09;;;4.94;78.88
62697;BME280;48761;42.680;23.312;2022-12-18T04:54:04;95866.34;;;4.65;78.20
62697;BME280;48761;42.680;23.312;2022-12-18T04:56:31;95876.13;;;4.90;77.62
62697;BME280;48761;42.680;23.312;2022-12-18T04:58:57;95882.50;;;4.82;77.08
62697;BME280;48761;42.680;23.312;2022-12-18T05:01:23;95872.75;;;4.85;77.22
62697;BME280;48761;42.680;23.312;2022-12-18T05:03:51;95876.50;;;4.77;76.96
62697;BME280;48761;42.680;23.312;2022-12-18T05:06:17;95881.56;;;4.84;77.63
62697;BME280;48761;42.680;23.312;2022-12-18T05:08:43;95891.19;;;4.85;76.59
62697;BME280;48761;42.680;23.312;2022-12-18T05:11:12;95883.16;;;4.59;77.55
62697;BME280;48761;42.680;23.312;2022-12-18T05:13:38;95903.16;;;4.66;78.28
62697;BME280;48761;42.680;23.312;2022-12-18T05:16:05;95893.88;;;4.53;78.40
62697;BME280;48761;42.680;23.312;2022-12-18T05:18:31;95858.25;;;4.41;78.80
62697;BME280;48761;42.680;23.312;2022-12-18T05:20:57;95905.47;;;4.47;78.25
62697;BME280;48761;42.680;23.312;2022-12-18T05:23:24;95905.72;;;4.37;78.85
62697;BME280;48761;42.680;23.312;2022-12-18T05:25:58;95905.97;;;4.28;79.08
62697;BME280;48761;42.680;23.312;2022-12-18T05:28:26;95912.94;;;4.31;78.20
62697;BME280;48761;42.680;23.312;2022-12-18T05:30:54;95915.75;;;4.24;78.61
62697;BME280;48761;42.680;23.312;2022-12-18T05:33:21;95922.56;;;4.32;78.65
62697;BME280;48761;42.680;23.312;2022-12-18T05:35:56;95926.63;;;4.44;78.92
62697;BME280;48761;42.680;23.312;2022-12-18T05:38:23;95915.09;;;4.48;77.67
62697;BME280;48761;42.680;23.312;2022-12-18T05:40:50;95942.44;;;4.74;77.40
62697;BME280;48761;42.680;23.312;2022-12-18T05:43:16;95941.06;;;4.60;77.15
62697;BME280;48761;42.680;23.312;2022-12-18T05:45:43;95945.88;;;4.46;77.27
62697;BME280;48761;42.680;23.312;2022-12-18T05:48:11;95954.50;;;4.51;77.27
62697;BME280;48761;42.680;23.312;2022-12-18T05:50:39;95950.38;;;4.42;77.67
62697;BME280;48761;42.680;23.312;2022-12-18T05:53:06;95926.50;;;4.17;77.29
62697;BME280;48761;42.680;23.312;2022-12-18T05:55:33;95910.22;;;4.02;77.05
62697;BME280;48761;42.680;23.312;2022-12-18T05:58:00;95953.72;;;4.15;77.21
62697;BME280;48761;42.680;23.312;2022-12-18T06:00:27;95940.00;;;4.02;76.84
62697;BME280;48761;42.680;23.312;2022-12-18T06:02:52;95951.81;;;4.21;77.18
62697;BME280;48761;42.680;23.312;2022-12-18T06:05:18;95952.63;;;3.89;77.41
62697;BME280;48761;42.680;23.312;2022-12-18T06:07:44;95970.94;;;3.94;77.39
62697;BME280;48761;42.680;23.312;2022-12-18T06:10:10;95956.78;;;3.98;77.75
62697;BME280;48761;42.680;23.312;2022-12-18T06:12:37;95954.91;;;4.03;77.11
62697;BME280;48761;42.680;23.312;2022-12-18T06:15:03;95964.84;;;4.25;77.05
62697;BME280;48761;42.680;23.312;2022-12-18T06:17:30;95955.53;;;4.13;77.15
62697;BME280;48761;42.680;23.312;2022-12-18T06:19:57;95968.47;;;4.21;76.65
62697;BME280;48761;42.680;23.312;2022-12-18T06:22:23;95967.53;;;4.24;77.27
62697;BME280;48761;42.680;23.312;2022-12-18T06:24:50;95975.03;;;4.40;77.04
62697;BME280;48761;42.680;23.312;2022-12-18T06:27:16;95978.41;;;4.43;76.31
62697;BME280;48761;42.680;23.312;2022-12-18T06:29:42;95982.66;;;4.49;75.82
62697;BME280;48761;42.680;23.312;2022-12-18T06:32:08;95963.13;;;4.56;76.44
62697;BME280;48761;42.680;23.312;2022-12-18T06:34:37;95979.28;;;4.44;75.95
62697;BME280;48761;42.680;23.312;2022-12-18T06:37:03;95983.00;;;4.36;77.03
62697;BME280;48761;42.680;23.312;2022-12-18T06:39:29;95976.41;;;4.20;77.02
62697;BME280;48761;42.680;23.312;2022-12-18T06:41:55;95993.19;;;4.49;77.05
62697;BME280;48761;42.680;23.312;2022-12-18T06:44:21;96003.72;;;4.49;76.76
62697;BME280;48761;42.680;23.312;2022-12-18T06:46:47;96000.50;;;4.37;76.49
62697;BME280;48761;42.680;23.312;2022-12-18T06:49:13;96004.06;;;4.36;76.75
62697;BME280;48761;42.680;23.312;2022-12-18T06:51:39;96014.34;;;4.46;76.01
62697;BME280;48761;42.680;23.312;2022-12-18T06:54:05;95999.47;;;4.43;75.87
62697;BME280;48761;42.680;23.312;2022-12-18T06:56:31;96011.03;;;4.37;75.59
62697;BME280;48761;42.680;23.312;2022-12-18T06:58:57;96012.72;;;4.40;75.43
62697;BME280;48761;42.680;23.312;2022-12-18T07:01:23;96026.06;;;4.34;75.41
62697;BME280;48761;42.680;23.312;2022-12-18T07:03:53;96016.56;;;4.28;74.38
62697;BME280;48761;42.680;23.312;2022-12-18T07:06:21;96017.97;;;4.42;74.33
62697;BME280;48761;42.680;23.312;2022-12-18T07:08:48;96022.91;;;4.54;73.73
62697;BME280;48761;42.680;23.312;2022-12-18T07:11:17;96028.38;;;4.78;74.76
62697;BME280;48761;42.680;23.312;2022-12-18T07:13:43;96035.16;;;4.55;74.22
62697;BME280;48761;42.680;23.312;2022-12-18T07:16:16;96023.72;;;4.23;75.33
62697;BME280;48761;42.680;23.312;2022-12-18T07:18:43;96035.66;;;4.36;75.63
62697;BME280;48761;42.680;23.312;2022-12-18T07:21:13;96022.41;;;4.40;74.67
62697;BME280;48761;42.680;23.312;2022-12-18T07:23:39;96024.72;;;4.19;74.67
62697;BME280;48761;42.680;23.312;2022-12-18T07:26:07;96040.06;;;4.36;75.17
62697;BME280;48761;42.680;23.312;2022-12-18T07:28:34;96041.13;;;4.29;75.00
62697;BME280;48761;42.680;23.312;2022-12-18T07:31:04;96043.50;;;4.38;74.68
62697;BME280;48761;42.680;23.312;2022-12-18T07:33:31;96039.25;;;4.34;74.87
62697;BME280;48761;42.680;23.312;2022-12-18T07:35:59;96044.22;;;4.45;74.20
62697;BME280;48761;42.680;23.312;2022-12-18T07:38:24;96051.47;;;4.36;74.37
62697;BME280;48761;42.680;23.312;2022-12-18T07:40:50;96033.06;;;4.00;74.80
62697;BME280;48761;42.680;23.312;2022-12-18T07:43:16;96054.34;;;4.25;75.55
62697;BME280;48761;42.680;23.312;2022-12-18T07:45:42;96054.84;;;4.05;75.51
62697;BME280;48761;42.680;23.312;2022-12-18T07:48:09;96061.25;;;3.95;75.49
62697;BME280;48761;42.680;23.312;2022-12-18T07:50:35;96066.91;;;3.79;76.18
62697;BME280;48761;42.680;23.312;2022-12-18T07:53:01;96056.91;;;3.94;76.20
62697;BME280;48761;42.680;23.312;2022-12-18T07:55:27;96064.81;;;3.92;76.25
62697;BME280;48761;42.680;23.312;2022-12-18T07:57:53;96069.47;;;3.80;77.07
62697;BME280;48761;42.680;23.312;2022-12-18T08:00:19;96073.00;;;3.81;76.80
62697;BME280;48761;42.680;23.312;2022-12-18T08:02:46;96052.47;;;3.96;76.00
62697;BME280;48761;42.680;23.312;2022-12-18T08:05:13;96065.19;;;4.14;76.24
62697;BME280;48761;42.680;23.312;2022-12-18T08:07:39;96082.63;;;4.19;75.77
62697;BME280;48761;42.680;23.312;2022-12-18T08:10:06;96082.16;;;4.01;75.93
62697;BME280;48761;42.680;23.312;2022-12-18T08:12:32;96089.81;;;3.74;77.08
62697;BME280;48761;42.680;23.312;2022-12-18T08:14:58;96088.72;;;3.84;76.91
62697;BME280;48761;42.680;23.312;2022-12-18T08:17:23;96080.94;;;3.78;76.81
62697;BME280;48761;42.680;23.312;2022-12-18T08:19:50;96099.63;;;3.65;76.51
62697;BME280;48761;42.680;23.312;2022-12-18T08:22:16;96084.56;;;3.74;76.67
62697;BME280;48761;42.680;23.312;2022-12-18T08:24:43;96091.13;;;3.94;75.72
62697;BME280;48761;42.680;23.312;2022-12-18T08:27:09;96101.47;;;4.00;75.39
62697;BME280;48761;42.680;23.312;2022-12-18T08:29:34;96108.31;;;4.07;74.98
62697;BME280;48761;42.680;23.312;2022-12-18T08:32:00;96113.50;;;4.10;74.96
62697;BME280;48761;42.680;23.312;2022-12-18T08:34:26;96126.44;;;4.21;74.42
62697;BME280;48761;42.680;23.312;2022-12-18T08:36:52;96124.72;;;4.19;74.90
62697;BME280;48761;42.680;23.312;2022-12-18T08:39:18;96117.03;;;4.11;74.24
62697;BME280;48761;42.680;23.312;2022-12-18T08:41:44;96079.88;;;3.87;74.60
62697;BME280;48761;42.680;23.312;2022-12-18T08:44:10;96095.69;;;3.85;74.25
62697;BME280;48761;42.680;23.312;2022-12-18T08:46:41;96122.22;;;4.12;74.21
62697;BME280;48761;42.680;23.312;2022-12-18T08:49:08;96126.91;;;4.37;74.13
62697;BME280;48761;42.680;23.312;2022-12-18T08:51:35;96124.28;;;4.01;73.48
62697;BME280;48761;42.680;23.312;2022-12-18T08:54:02;96119.41;;;4.20;74.08
62697;BME280;48761;42.680;23.312;2022-12-18T08:56:28;96139.59;;;4.20;72.88
62697;BME280;48761;42.680;23.312;2022-12-18T08:58:54;96117.72;;;4.18;73.07
62697;BME280;48761;42.680;23.312;2022-12-18T09:01:21;96118.78;;;4.10;72.81
62697;BME280;48761;42.680;23.312;2022-12-18T09:03:48;96119.22;;;4.30;72.59
62697;BME280;48761;42.680;23.312;2022-12-18T09:06:16;96126.38;;;4.24;71.78
62697;BME280;48761;42.680;23.312;2022-12-18T09:08:43;96085.31;;;4.15;72.06
62697;BME280;48761;42.680;23.312;2022-12-18T09:11:24;96110.81;;;4.13;72.14
62697;BME280;48761;42.680;23.312;2022-12-18T09:13:51;96120.06;;;4.30;71.98
62697;BME280;48761;42.680;23.312;2022-12-18T09:16:18;96113.50;;;4.10;71.96
62697;BME280;48761;42.680;23.312;2022-12-18T09:18:44;96120.34;;;4.18;72.37
62697;BME280;48761;42.680;23.312;2022-12-18T09:21:12;96120.59;;;4.08;71.75
62697;BME280;48761;42.680;23.312;2022-12-18T09:23:39;96121.16;;;4.21;72.06
62697;BME280;48761;42.680;23.312;2022-12-18T09:26:05;96099.22;;;4.21;72.25
62697;BME280;48761;42.680;23.312;2022-12-18T09:28:31;96119.31;;;4.25;72.55
62697;BME280;48761;42.680;23.312;2022-12-18T09:30:57;96112.44;;;4.19;71.11
62697;BME280;48761;42.680;23.312;2022-12-18T09:33:23;96123.81;;;4.20;70.10
62697;BME280;48761;42.680;23.312;2022-12-18T09:35:50;96118.34;;;4.29;70.20
62697;BME280;48761;42.680;23.312;2022-12-18T09:38:17;96111.69;;;4.14;69.78
62697;BME280;48761;42.680;23.312;2022-12-18T09:40:56;96111.72;;;4.12;70.33
62697;BME280;48761;42.680;23.312;2022-12-18T09:43:29;96132.34;;;4.31;70.22
62697;BME280;48761;42.680;23.312;2022-12-18T09:46:06;96095.78;;;4.19;69.53
62697;BME280;48761;42.680;23.312;2022-12-18T09:48:41;96115.72;;;4.28;69.56
62697;BME280;48761;42.680;23.312;2022-12-18T09:51:22;96121.81;;;4.31;70.14
62697;BME280;48761;42.680;23.312;2022-12-18T09:53:58;96055.16;;;4.29;69.27
62697;BME280;48761;42.680;23.312;2022-12-18T09:56:27;96115.03;;;4.56;68.66
62697;BME280;48761;42.680;23.312;2022-12-18T09:59:00;96118.72;;;4.84;69.10
62697;BME280;48761;42.680;23.312;2022-12-18T10:01:28;96124.91;;;4.82;68.50
62697;BME280;48761;42.680;23.312;2022-12-18T10:03:54;96112.19;;;4.64;68.62
62697;BME280;48761;42.680;23.312;2022-12-18T10:06:35;96114.50;;;4.76;68.63
62697;BME280;48761;42.680;23.312;2022-12-18T10:12:08;96116.78;;;4.57;68.33
62697;BME280;48761;42.680;23.312;2022-12-18T10:17:41;96107.13;;;4.57;68.64
62697;BME280;48761;42.680;23.312;2022-12-18T10:28:30;96107.63;;;4.37;67.58
62697;BME280;48761;42.680;23.312;2022-12-18T10:30:56;96114.09;;;4.58;68.04
62697;BME280;48761;42.680;23.312;2022-12-18T10:33:24;96128.81;;;4.67;68.65
62697;BME280;48761;42.680;23.312;2022-12-18T10:35:54;96128.34;;;4.85;67.87
62697;BME280;48761;42.680;23.312;2022-12-18T10:38:23;96113.44;;;4.84;67.83
62697;BME280;48761;42.680;23.312;2022-12-18T10:40:57;96122.69;;;5.00;67.87
62697;BME280;48761;42.680;23.312;2022-12-18T10:51:28;96118.38;;;4.96;66.66
62697;BME280;48761;42.680;23.312;2022-12-18T10:54:03;96121.19;;;4.90;66.95
62697;BME280;48761;42.680;23.312;2022-12-18T10:56:31;96122.16;;;4.86;67.16
62697;BME280;48761;42.680;23.312;2022-12-18T10:59:04;96114.84;;;4.97;67.09
62697;BME280;48761;42.680;23.312;2022-12-18T11:01:48;96115.25;;;5.15;66.42
62697;BME280;48761;42.680;23.312;2022-12-18T11:04:32;96109.38;;;5.03;66.33
62697;BME280;48761;42.680;23.312;2022-12-18T11:06:59;96116.41;;;5.04;65.44
62697;BME280;48761;42.680;23.312;2022-12-18T11:09:28;96116.75;;;4.92;64.12
62697;BME280;48761;42.680;23.312;2022-12-18T11:11:57;96108.13;;;4.52;63.83
62697;BME280;48761;42.680;23.312;2022-12-18T11:14:26;96124.22;;;4.74;64.73
62697;BME280;48761;42.680;23.312;2022-12-18T11:16:54;96111.72;;;4.82;64.79
62697;BME280;48761;42.680;23.312;2022-12-18T11:19:28;96119.13;;;5.01;64.71
62697;BME280;48761;42.680;23.312;2022-12-18T11:21:55;96128.69;;;5.06;65.25
62697;BME280;48761;42.680;23.312;2022-12-18T11:24:32;96132.38;;;4.98;64.96
62697;BME280;48761;42.680;23.312;2022-12-18T11:27:01;96109.50;;;5.00;65.15
62697;BME280;48761;42.680;23.312;2022-12-18T11:29:37;96114.06;;;4.93;65.22
62697;BME280;48761;42.680;23.312;2022-12-18T11:32:38;96132.13;;;5.08;65.47
62697;BME280;48761;42.680;23.312;2022-12-18T11:36:05;96102.41;;;5.02;64.61
62697;BME280;48761;42.680;23.312;2022-12-18T11:40:51;96125.19;;;5.03;64.97
62697;BME280;48761;42.680;23.312;2022-12-18T11:43:41;96127.41;;;5.19;64.86
62697;BME280;48761;42.680;23.312;2022-12-18T11:46:26;96132.56;;;4.92;64.76
62697;BME280;48761;42.680;23.312;2022-12-18T11:49:27;96081.06;;;4.80;63.83
62697;BME280;48761;42.680;23.312;2022-12-18T11:54:52;96136.00;;;5.27;62.77
62697;BME280;48761;42.680;23.312;2022-12-18T11:57:35;96120.09;;;5.29;63.23
62697;BME280;48761;42.680;23.312;2022-12-18T12:00:22;96119.94;;;5.03;64.04
62697;BME280;48761;42.680;23.312;2022-12-18T12:03:27;96122.34;;;5.11;63.94
62697;BME280;48761;42.680;23.312;2022-12-18T12:12:16;96091.41;;;4.86;65.53
62697;BME280;48761;42.680;23.312;2022-12-18T12:17:38;96117.97;;;5.12;65.07
62697;BME280;48761;42.680;23.312;2022-12-18T12:20:08;96115.03;;;5.23;64.74
62697;BME280;48761;42.680;23.312;2022-12-18T12:22:53;96090.00;;;5.06;64.82
62697;BME280;48761;42.680;23.312;2022-12-18T12:33:37;96123.41;;;5.06;65.68
62697;BME280;48761;42.680;23.312;2022-12-18T12:39:11;96110.25;;;5.04;65.53
62697;BME280;48761;42.680;23.312;2022-12-18T12:41:40;96080.00;;;4.86;65.62
62697;BME280;48761;42.680;23.312;2022-12-18T12:44:12;96129.84;;;5.27;65.67
62697;BME280;48761;42.680;23.312;2022-12-18T12:46:41;96124.63;;;5.25;65.32
62697;BME280;48761;42.680;23.312;2022-12-18T12:49:15;96122.41;;;5.10;65.90
62697;BME280;48761;42.680;23.312;2022-12-18T12:51:47;96134.88;;;7.30;95.30
62697;BME280;48761;42.680;23.312;2022-12-18T12:54:19;96131.72;;;6.42;69.45
62697;BME280;48761;42.680;23.312;2022-12-18T13:02:20;96128.97;;;5.58;65.92
62697;BME280;48761;42.680;23.312;2022-12-18T13:07:28;96146.91;;;5.45;66.98
62697;BME280;48761;42.680;23.312;2022-12-18T13:13:00;96150.88;;;5.29;66.15
62697;BME280;48761;42.680;23.312;2022-12-18T13:20:50;96155.34;;;5.26;65.53
62697;BME280;48761;42.680;23.312;2022-12-18T13:23:40;96165.53;;;5.41;65.80
62697;BME280;48761;42.680;23.312;2022-12-18T13:30:58;96166.53;;;5.03;65.42
62697;BME280;48761;42.680;23.312;2022-12-18T13:38:37;96157.44;;;5.13;65.05
62697;BME280;48761;42.680;23.312;2022-12-18T13:43:55;96170.59;;;5.15;67.46
62697;BME280;48761;42.680;23.312;2022-12-18T13:46:28;96165.66;;;5.36;68.79
62697;BME280;48761;42.680;23.312;2022-12-18T13:49:03;96181.47;;;5.36;67.41
62697;BME280;48761;42.680;23.312;2022-12-18T13:51:32;96187.91;;;5.25;66.09
62697;BME280;48761;42.680;23.312;2022-12-18T13:56:48;96192.91;;;5.35;65.35
62697;BME280;48761;42.680;23.312;2022-12-18T13:59:17;96189.19;;;5.42;67.42
62697;BME280;48761;42.680;23.312;2022-12-18T14:01:51;96187.28;;;5.47;65.91
62697;BME280;48761;42.680;23.312;2022-12-18T14:04:46;96199.94;;;5.66;64.98
62697;BME280;48761;42.680;23.312;2022-12-18T14:07:14;96201.03;;;5.59;64.60
62697;BME280;48761;42.680;23.312;2022-12-18T14:09:43;96195.94;;;5.53;64.05
62697;BME280;48761;42.680;23.312;2022-12-18T14:12:24;96193.56;;;5.43;63.13
62697;BME280;48761;42.680;23.312;2022-12-18T14:14:52;96191.09;;;5.37;62.78
62697;BME280;48761;42.680;23.312;2022-12-18T14:17:18;96195.91;;;5.22;63.42
62697;BME280;48761;42.680;23.312;2022-12-18T14:19:47;96195.31;;;5.11;63.37
62697;BME280;48761;42.680;23.312;2022-12-18T14:22:19;96216.66;;;5.01;63.36
62697;BME280;48761;42.680;23.312;2022-12-18T14:24:46;96212.00;;;5.11;63.06
62697;BME280;48761;42.680;23.312;2022-12-18T14:27:21;96211.22;;;5.08;63.25
62697;BME280;48761;42.680;23.312;2022-12-18T14:29:48;96210.59;;;4.98;63.74
62697;BME280;48761;42.680;23.312;2022-12-18T14:34:41;96211.50;;;4.97;62.66
62697;BME280;48761;42.680;23.312;2022-12-18T14:37:10;96214.44;;;4.84;62.15
62697;BME280;48761;42.680;23.312;2022-12-18T14:39:36;96215.63;;;4.72;62.80
62697;BME280;48761;42.680;23.312;2022-12-18T14:42:02;96202.56;;;4.67;63.27
62697;BME280;48761;42.680;23.312;2022-12-18T14:44:28;96203.34;;;4.71;62.52
62697;BME280;48761;42.680;23.312;2022-12-18T14:46:54;96196.38;;;4.70;61.53
62697;BME280;48761;42.680;23.312;2022-12-18T14:49:29;96209.09;;;4.87;61.57
62697;BME280;48761;42.680;23.312;2022-12-18T14:51:57;96207.09;;;4.97;61.32
62697;BME280;48761;42.680;23.312;2022-12-18T14:54:27;96193.81;;;4.65;60.96
62697;BME280;48761;42.680;23.312;2022-12-18T14:57:05;96215.69;;;4.69;61.61
62697;BME280;48761;42.680;23.312;2022-12-18T14:59:32;96216.00;;;4.56;60.65
62697;BME280;48761;42.680;23.312;2022-12-18T15:02:08;96221.19;;;4.59;60.94
62697;BME280;48761;42.680;23.312;2022-12-18T15:04:40;96189.28;;;4.35;60.89
62697;BME280;48761;42.680;23.312;2022-12-18T15:07:16;96214.66;;;4.40;61.38
62697;BME280;48761;42.680;23.312;2022-12-18T15:12:34;96220.88;;;4.35;61.59